sensor_id;sensor_type;location;lat;lon;timestamp;temperature;humidity
83283;DHT22;73190;50.780;5.658;2024-02-23T00:01:49;7.10;83.90
83283;DHT22;73190;50.780;5.658;2024-02-23T00:04:17;7.00;83.90
83283;DHT22;73190;50.780;5.658;2024-02-23T00:06:48;7.00;84.10
83283;DHT22;73190;50.780;5.658;2024-02-23T00:09:15;6.90;85.10
83283;DHT22;73190;50.780;5.658;2024-02-23T00:11:43;6.80;85.10
83283;DHT22;73190;50.780;5.658;2024-02-23T00:14:17;6.90;85.40
83283;DHT22;73190;50.780;5.658;2024-02-23T00:16:47;6.90;85.60
83283;DHT22;73190;50.780;5.658;2024-02-23T00:19:15;6.90;85.70
83283;DHT22;73190;50.780;5.658;2024-02-23T00:21:45;6.90;85.70
83283;DHT22;73190;50.780;5.658;2024-02-23T00:24:17;7.00;85.40
83283;DHT22;73190;50.780;5.658;2024-02-23T00:26:47;7.10;85.10
83283;DHT22;73190;50.780;5.658;2024-02-23T00:29:17;7.00;84.80
83283;DHT22;73190;50.780;5.658;2024-02-23T00:31:45;6.90;85.60
83283;DHT22;73190;50.780;5.658;2024-02-23T00:34:13;6.90;86.10
83283;DHT22;73190;50.780;5.658;2024-02-23T00:36:41;6.90;86.50
83283;DHT22;73190;50.780;5.658;2024-02-23T00:39:11;6.90;86.00
83283;DHT22;73190;50.780;5.658;2024-02-23T00:41:38;6.90;86.90
83283;DHT22;73190;50.780;5.658;2024-02-23T00:44:06;6.90;86.70
83283;DHT22;73190;50.780;5.658;2024-02-23T00:46:34;6.80;86.10
83283;DHT22;73190;50.780;5.658;2024-02-23T00:49:01;6.70;86.40
83283;DHT22;73190;50.780;5.658;2024-02-23T00:51:29;6.70;86.60
83283;DHT22;73190;50.780;5.658;2024-02-23T00:53:56;6.70;86.40
83283;DHT22;73190;50.780;5.658;2024-02-23T00:56:24;6.70;85.30
83283;DHT22;73190;50.780;5.658;2024-02-23T00:58:51;6.70;86.20
83283;DHT22;73190;50.780;5.658;2024-02-23T01:01:19;6.70;85.30
83283;DHT22;73190;50.780;5.658;2024-02-23T01:03:46;6.60;85.40
83283;DHT22;73190;50.780;5.658;2024-02-23T01:06:14;6.60;85.60
83283;DHT22;73190;50.780;5.658;2024-02-23T01:08:42;6.50;85.60
83283;DHT22;73190;50.780;5.658;2024-02-23T01:11:10;6.50;85.10
83283;DHT22;73190;50.780;5.658;2024-02-23T01:13:37;6.60;84.60
83283;DHT22;73190;50.780;5.658;2024-02-23T01:16:05;6.80;84.20
83283;DHT22;73190;50.780;5.658;2024-02-23T01:18:33;6.80;83.70
83283;DHT22;73190;50.780;5.658;2024-02-23T01:21:00;6.60;83.20
83283;DHT22;73190;50.780;5.658;2024-02-23T01:23:28;6.50;85.00
83283;DHT22;73190;50.780;5.658;2024-02-23T01:25:55;6.50;84.50
83283;DHT22;73190;50.780;5.658;2024-02-23T01:28:26;6.40;84.60
83283;DHT22;73190;50.780;5.658;2024-02-23T01:30:53;6.40;84.80
83283;DHT22;73190;50.780;5.658;2024-02-23T01:33:24;6.30;84.70
83283;DHT22;73190;50.780;5.658;2024-02-23T01:35:51;6.30;84.70
83283;DHT22;73190;50.780;5.658;2024-02-23T01:38:19;6.50;84.80
83283;DHT22;73190;50.780;5.658;2024-02-23T01:40:47;6.60;84.00
83283;DHT22;73190;50.780;5.658;2024-02-23T01:43:15;6.60;82.90
83283;DHT22;73190;50.780;5.658;2024-02-23T01:45:43;6.50;83.50
83283;DHT22;73190;50.780;5.658;2024-02-23T01:48:11;6.50;84.50
83283;DHT22;73190;50.780;5.658;2024-02-23T01:50:39;6.50;84.50
83283;DHT22;73190;50.780;5.658;2024-02-23T01:53:07;6.50;83.40
83283;DHT22;73190;50.780;5.658;2024-02-23T01:55:35;6.50;83.10
83283;DHT22;73190;50.780;5.658;2024-02-23T01:58:03;6.50;83.40
83283;DHT22;73190;50.780;5.658;2024-02-23T02:00:33;6.60;82.90
83283;DHT22;73190;50.780;5.658;2024-02-23T02:03:04;6.50;82.40
83283;DHT22;73190;50.780;5.658;2024-02-23T02:05:32;6.50;82.80
83283;DHT22;73190;50.780;5.658;2024-02-23T02:07:59;6.60;82.70
83283;DHT22;73190;50.780;5.658;2024-02-23T02:10:27;6.70;82.90
83283;DHT22;73190;50.780;5.658;2024-02-23T02:12:55;6.70;82.20
83283;DHT22;73190;50.780;5.658;2024-02-23T02:15:22;6.80;82.20
83283;DHT22;73190;50.780;5.658;2024-02-23T02:17:50;6.80;82.20
83283;DHT22;73190;50.780;5.658;2024-02-23T02:20:18;6.80;82.10
83283;DHT22;73190;50.780;5.658;2024-02-23T02:22:47;6.70;82.90
83283;DHT22;73190;50.780;5.658;2024-02-23T02:25:15;6.70;82.10
83283;DHT22;73190;50.780;5.658;2024-02-23T02:27:42;6.90;81.90
83283;DHT22;73190;50.780;5.658;2024-02-23T02:30:12;6.80;82.20
83283;DHT22;73190;50.780;5.658;2024-02-23T02:32:40;6.80;82.30
83283;DHT22;73190;50.780;5.658;2024-02-23T02:35:10;6.80;82.10
83283;DHT22;73190;50.780;5.658;2024-02-23T02:37:37;6.90;81.30
83283;DHT22;73190;50.780;5.658;2024-02-23T02:40:05;6.90;81.80
83283;DHT22;73190;50.780;5.658;2024-02-23T02:42:33;7.00;80.90
83283;DHT22;73190;50.780;5.658;2024-02-23T02:45:01;7.00;80.20
83283;DHT22;73190;50.780;5.658;2024-02-23T02:47:29;7.10;79.90
83283;DHT22;73190;50.780;5.658;2024-02-23T02:49:57;7.00;79.90
83283;DHT22;73190;50.780;5.658;2024-02-23T02:52:24;7.00;81.20
83283;DHT22;73190;50.780;5.658;2024-02-23T02:54:52;7.00;80.40
83283;DHT22;73190;50.780;5.658;2024-02-23T02:57:19;7.20;79.80
83283;DHT22;73190;50.780;5.658;2024-02-23T02:59:47;7.20;79.30
83283;DHT22;73190;50.780;5.658;2024-02-23T03:02:16;7.10;80.40
83283;DHT22;73190;50.780;5.658;2024-02-23T03:04:50;7.00;79.40
83283;DHT22;73190;50.780;5.658;2024-02-23T03:07:18;6.90;81.00
83283;DHT22;73190;50.780;5.658;2024-02-23T03:09:46;7.00;80.60
83283;DHT22;73190;50.780;5.658;2024-02-23T03:12:13;6.90;80.80
83283;DHT22;73190;50.780;5.658;2024-02-23T03:14:41;6.90;80.70
83283;DHT22;73190;50.780;5.658;2024-02-23T03:17:09;6.90;81.00
83283;DHT22;73190;50.780;5.658;2024-02-23T03:19:37;7.00;80.50
83283;DHT22;73190;50.780;5.658;2024-02-23T03:22:05;7.00;80.10
83283;DHT22;73190;50.780;5.658;2024-02-23T03:24:33;7.00;80.30
83283;DHT22;73190;50.780;5.658;2024-02-23T03:27:01;6.90;81.20
83283;DHT22;73190;50.780;5.658;2024-02-23T03:29:28;7.00;80.90
83283;DHT22;73190;50.780;5.658;2024-02-23T03:31:56;7.10;80.70
83283;DHT22;73190;50.780;5.658;2024-02-23T03:34:24;7.20;79.90
83283;DHT22;73190;50.780;5.658;2024-02-23T03:36:51;7.20;80.40
83283;DHT22;73190;50.780;5.658;2024-02-23T03:39:19;7.20;80.70
83283;DHT22;73190;50.780;5.658;2024-02-23T03:41:46;7.20;79.90
83283;DHT22;73190;50.780;5.658;2024-02-23T03:44:14;7.30;79.60
83283;DHT22;73190;50.780;5.658;2024-02-23T03:46:42;7.40;79.20
83283;DHT22;73190;50.780;5.658;2024-02-23T03:49:10;7.50;78.90
83283;DHT22;73190;50.780;5.658;2024-02-23T03:51:38;7.40;78.00
83283;DHT22;73190;50.780;5.658;2024-02-23T03:54:06;7.30;79.20
83283;DHT22;73190;50.780;5.658;2024-02-23T03:56:41;7.20;79.60
83283;DHT22;73190;50.780;5.658;2024-02-23T03:59:10;7.20;78.60
83283;DHT22;73190;50.780;5.658;2024-02-23T04:01:38;7.10;79.30
83283;DHT22;73190;50.780;5.658;2024-02-23T04:04:06;7.10;79.60
83283;DHT22;73190;50.780;5.658;2024-02-23T04:06:34;6.90;80.00
83283;DHT22;73190;50.780;5.658;2024-02-23T04:09:02;7.10;80.60
83283;DHT22;73190;50.780;5.658;2024-02-23T04:11:33;7.20;80.10
83283;DHT22;73190;50.780;5.658;2024-02-23T04:14:01;7.40;77.90
83283;DHT22;73190;50.780;5.658;2024-02-23T04:16:28;7.40;77.50
83283;DHT22;73190;50.780;5.658;2024-02-23T04:18:56;7.40;79.00
83283;DHT22;73190;50.780;5.658;2024-02-23T04:21:24;7.50;77.30
83283;DHT22;73190;50.780;5.658;2024-02-23T04:23:51;7.60;77.20
83283;DHT22;73190;50.780;5.658;2024-02-23T04:26:19;7.70;77.50
83283;DHT22;73190;50.780;5.658;2024-02-23T04:28:47;7.40;78.50
83283;DHT22;73190;50.780;5.658;2024-02-23T04:31:14;7.30;78.90
83283;DHT22;73190;50.780;5.658;2024-02-23T04:33:42;7.30;79.00
83283;DHT22;73190;50.780;5.658;2024-02-23T04:36:09;7.40;78.20
83283;DHT22;73190;50.780;5.658;2024-02-23T04:38:37;7.40;78.80
83283;DHT22;73190;50.780;5.658;2024-02-23T04:41:04;7.40;77.30
83283;DHT22;73190;50.780;5.658;2024-02-23T04:43:32;7.40;77.80
83283;DHT22;73190;50.780;5.658;2024-02-23T04:46:00;7.30;78.10
83283;DHT22;73190;50.780;5.658;2024-02-23T04:48:27;7.20;79.30
83283;DHT22;73190;50.780;5.658;2024-02-23T04:50:57;7.30;79.30
83283;DHT22;73190;50.780;5.658;2024-02-23T04:53:24;7.30;79.30
83283;DHT22;73190;50.780;5.658;2024-02-23T04:55:52;7.40;78.10
83283;DHT22;73190;50.780;5.658;2024-02-23T04:58:19;7.30;77.60
83283;DHT22;73190;50.780;5.658;2024-02-23T05:00:47;7.30;78.40
83283;DHT22;73190;50.780;5.658;2024-02-23T05:03:15;7.30;77.70
83283;DHT22;73190;50.780;5.658;2024-02-23T05:05:42;7.30;77.70
83283;DHT22;73190;50.780;5.658;2024-02-23T05:08:10;7.30;77.40
83283;DHT22;73190;50.780;5.658;2024-02-23T05:10:37;7.30;77.40
83283;DHT22;73190;50.780;5.658;2024-02-23T05:13:05;7.30;78.20
83283;DHT22;73190;50.780;5.658;2024-02-23T05:15:33;7.30;78.10
83283;DHT22;73190;50.780;5.658;2024-02-23T05:18:00;7.30;77.60
83283;DHT22;73190;50.780;5.658;2024-02-23T05:20:28;7.20;78.70
83283;DHT22;73190;50.780;5.658;2024-02-23T05:22:56;7.20;79.30
83283;DHT22;73190;50.780;5.658;2024-02-23T05:25:23;7.20;79.30
83283;DHT22;73190;50.780;5.658;2024-02-23T05:27:53;7.20;79.10
83283;DHT22;73190;50.780;5.658;2024-02-23T05:30:20;7.20;79.00
83283;DHT22;73190;50.780;5.658;2024-02-23T05:32:48;7.20;79.40
83283;DHT22;73190;50.780;5.658;2024-02-23T05:35:16;7.30;79.50
83283;DHT22;73190;50.780;5.658;2024-02-23T05:37:45;7.30;79.40
83283;DHT22;73190;50.780;5.658;2024-02-23T05:40:14;7.30;78.60
83283;DHT22;73190;50.780;5.658;2024-02-23T05:42:42;7.30;79.00
83283;DHT22;73190;50.780;5.658;2024-02-23T05:45:10;7.40;78.20
83283;DHT22;73190;50.780;5.658;2024-02-23T05:47:41;7.30;78.40
83283;DHT22;73190;50.780;5.658;2024-02-23T05:50:09;7.40;78.10
83283;DHT22;73190;50.780;5.658;2024-02-23T05:52:37;7.30;78.00
83283;DHT22;73190;50.780;5.658;2024-02-23T05:55:06;7.20;78.80
83283;DHT22;73190;50.780;5.658;2024-02-23T05:57:34;7.10;78.50
83283;DHT22;73190;50.780;5.658;2024-02-23T06:00:02;7.20;78.40
83283;DHT22;73190;50.780;5.658;2024-02-23T06:02:29;7.20;78.80
83283;DHT22;73190;50.780;5.658;2024-02-23T06:04:58;7.20;78.00
83283;DHT22;73190;50.780;5.658;2024-02-23T06:07:27;7.20;78.20
83283;DHT22;73190;50.780;5.658;2024-02-23T06:09:57;7.20;78.20
83283;DHT22;73190;50.780;5.658;2024-02-23T06:12:25;7.20;78.50
83283;DHT22;73190;50.780;5.658;2024-02-23T06:14:53;7.10;78.20
83283;DHT22;73190;50.780;5.658;2024-02-23T06:17:22;7.10;79.00
83283;DHT22;73190;50.780;5.658;2024-02-23T06:19:50;7.20;79.10
83283;DHT22;73190;50.780;5.658;2024-02-23T06:22:19;7.10;78.80
83283;DHT22;73190;50.780;5.658;2024-02-23T06:24:48;7.00;79.50
83283;DHT22;73190;50.780;5.658;2024-02-23T06:27:16;7.00;79.80
83283;DHT22;73190;50.780;5.658;2024-02-23T06:29:43;7.00;81.50
83283;DHT22;73190;50.780;5.658;2024-02-23T06:32:11;7.10;80.50
83283;DHT22;73190;50.780;5.658;2024-02-23T06:34:41;7.00;80.80
83283;DHT22;73190;50.780;5.658;2024-02-23T06:37:12;7.00;81.50
83283;DHT22;73190;50.780;5.658;2024-02-23T06:39:40;6.90;81.60
83283;DHT22;73190;50.780;5.658;2024-02-23T06:42:12;7.00;82.40
83283;DHT22;73190;50.780;5.658;2024-02-23T06:44:40;7.00;82.90
83283;DHT22;73190;50.780;5.658;2024-02-23T06:47:15;6.90;83.90
83283;DHT22;73190;50.780;5.658;2024-02-23T06:49:45;6.90;84.50
83283;DHT22;73190;50.780;5.658;2024-02-23T06:52:15;6.80;85.40
83283;DHT22;73190;50.780;5.658;2024-02-23T06:54:41;6.90;84.00
83283;DHT22;73190;50.780;5.658;2024-02-23T06:57:09;6.80;85.20
83283;DHT22;73190;50.780;5.658;2024-02-23T06:59:47;6.90;84.60
83283;DHT22;73190;50.780;5.658;2024-02-23T07:02:14;6.80;84.20
83283;DHT22;73190;50.780;5.658;2024-02-23T07:04:43;6.70;84.50
83283;DHT22;73190;50.780;5.658;2024-02-23T07:07:12;6.60;85.40
83283;DHT22;73190;50.780;5.658;2024-02-23T07:09:40;6.60;85.80
83283;DHT22;73190;50.780;5.658;2024-02-23T07:12:07;6.60;85.80
83283;DHT22;73190;50.780;5.658;2024-02-23T07:14:37;6.80;85.10
83283;DHT22;73190;50.780;5.658;2024-02-23T07:17:20;6.80;83.90
83283;DHT22;73190;50.780;5.658;2024-02-23T07:19:49;6.90;85.10
83283;DHT22;73190;50.780;5.658;2024-02-23T07:22:18;6.90;84.00
83283;DHT22;73190;50.780;5.658;2024-02-23T07:24:46;6.90;84.30
83283;DHT22;73190;50.780;5.658;2024-02-23T07:27:16;7.00;83.80
83283;DHT22;73190;50.780;5.658;2024-02-23T07:29:43;7.00;83.60
83283;DHT22;73190;50.780;5.658;2024-02-23T07:32:12;7.00;83.60
83283;DHT22;73190;50.780;5.658;2024-02-23T07:34:39;7.00;83.50
83283;DHT22;73190;50.780;5.658;2024-02-23T07:37:07;6.90;83.40
83283;DHT22;73190;50.780;5.658;2024-02-23T07:39:36;6.80;85.10
83283;DHT22;73190;50.780;5.658;2024-02-23T07:42:05;6.70;85.30
83283;DHT22;73190;50.780;5.658;2024-02-23T07:44:34;6.80;84.90
83283;DHT22;73190;50.780;5.658;2024-02-23T07:47:03;6.80;84.50
83283;DHT22;73190;50.780;5.658;2024-02-23T07:49:30;6.80;84.20
83283;DHT22;73190;50.780;5.658;2024-02-23T07:51:58;6.80;84.20
83283;DHT22;73190;50.780;5.658;2024-02-23T07:54:26;6.70;84.30
83283;DHT22;73190;50.780;5.658;2024-02-23T07:56:54;6.70;85.20
83283;DHT22;73190;50.780;5.658;2024-02-23T07:59:21;6.70;85.30
83283;DHT22;73190;50.780;5.658;2024-02-23T08:01:48;6.90;84.40
83283;DHT22;73190;50.780;5.658;2024-02-23T08:04:16;7.00;83.80
83283;DHT22;73190;50.780;5.658;2024-02-23T08:06:44;7.10;83.10
83283;DHT22;73190;50.780;5.658;2024-02-23T08:09:11;7.20;83.20
83283;DHT22;73190;50.780;5.658;2024-02-23T08:11:39;7.20;83.40
83283;DHT22;73190;50.780;5.658;2024-02-23T08:14:06;7.30;82.70
83283;DHT22;73190;50.780;5.658;2024-02-23T08:16:36;7.30;82.30
83283;DHT22;73190;50.780;5.658;2024-02-23T08:19:03;7.80;82.10
83283;DHT22;73190;50.780;5.658;2024-02-23T08:21:30;7.30;81.50
83283;DHT22;73190;50.780;5.658;2024-02-23T08:23:58;7.30;81.30
83283;DHT22;73190;50.780;5.658;2024-02-23T08:26:25;7.40;81.10
83283;DHT22;73190;50.780;5.658;2024-02-23T08:28:53;7.50;81.40
83283;DHT22;73190;50.780;5.658;2024-02-23T08:31:21;7.60;79.70
83283;DHT22;73190;50.780;5.658;2024-02-23T08:33:48;7.60;79.60
83283;DHT22;73190;50.780;5.658;2024-02-23T08:36:16;7.50;78.80
83283;DHT22;73190;50.780;5.658;2024-02-23T08:38:44;7.50;79.80
83283;DHT22;73190;50.780;5.658;2024-02-23T08:41:11;7.50;79.90
83283;DHT22;73190;50.780;5.658;2024-02-23T08:43:39;7.40;79.90
83283;DHT22;73190;50.780;5.658;2024-02-23T08:46:06;7.60;80.00
83283;DHT22;73190;50.780;5.658;2024-02-23T08:48:34;7.70;78.40
83283;DHT22;73190;50.780;5.658;2024-02-23T08:51:01;7.80;78.20
83283;DHT22;73190;50.780;5.658;2024-02-23T08:53:29;7.90;78.40
83283;DHT22;73190;50.780;5.658;2024-02-23T08:55:57;8.00;77.50
83283;DHT22;73190;50.780;5.658;2024-02-23T08:58:24;8.00;78.20
83283;DHT22;73190;50.780;5.658;2024-02-23T09:00:52;8.20;77.40
83283;DHT22;73190;50.780;5.658;2024-02-23T09:03:19;8.40;75.70
83283;DHT22;73190;50.780;5.658;2024-02-23T09:05:47;8.20;76.30
83283;DHT22;73190;50.780;5.658;2024-02-23T09:08:15;8.20;76.60
83283;DHT22;73190;50.780;5.658;2024-02-23T09:10:43;8.10;76.90
83283;DHT22;73190;50.780;5.658;2024-02-23T09:13:11;8.20;77.20
83283;DHT22;73190;50.780;5.658;2024-02-23T09:15:38;8.30;75.90
83283;DHT22;73190;50.780;5.658;2024-02-23T09:18:08;8.30;75.90
83283;DHT22;73190;50.780;5.658;2024-02-23T09:20:35;8.40;76.20
83283;DHT22;73190;50.780;5.658;2024-02-23T09:23:03;8.50;74.80
83283;DHT22;73190;50.780;5.658;2024-02-23T09:25:31;8.40;74.60
83283;DHT22;73190;50.780;5.658;2024-02-23T09:27:58;8.30;75.20
83283;DHT22;73190;50.780;5.658;2024-02-23T09:30:26;8.40;75.20
83283;DHT22;73190;50.780;5.658;2024-02-23T09:32:53;8.40;74.80
83283;DHT22;73190;50.780;5.658;2024-02-23T09:35:21;8.40;74.40
83283;DHT22;73190;50.780;5.658;2024-02-23T09:37:48;8.70;74.00
83283;DHT22;73190;50.780;5.658;2024-02-23T09:40:16;9.10;72.80
83283;DHT22;73190;50.780;5.658;2024-02-23T09:42:48;9.30;71.10
83283;DHT22;73190;50.780;5.658;2024-02-23T09:45:14;9.20;71.20
83283;DHT22;73190;50.780;5.658;2024-02-23T09:47:43;9.20;71.80
83283;DHT22;73190;50.780;5.658;2024-02-23T09:50:12;9.20;71.80
83283;DHT22;73190;50.780;5.658;2024-02-23T09:52:41;9.20;71.00
83283;DHT22;73190;50.780;5.658;2024-02-23T09:55:09;9.00;71.70
83283;DHT22;73190;50.780;5.658;2024-02-23T09:57:37;8.90;72.20
83283;DHT22;73190;50.780;5.658;2024-02-23T10:00:06;9.10;71.90
83283;DHT22;73190;50.780;5.658;2024-02-23T10:02:35;9.20;72.30
83283;DHT22;73190;50.780;5.658;2024-02-23T10:05:03;9.10;71.70
83283;DHT22;73190;50.780;5.658;2024-02-23T10:07:31;9.10;72.10
83283;DHT22;73190;50.780;5.658;2024-02-23T10:09:58;9.30;72.50
83283;DHT22;73190;50.780;5.658;2024-02-23T10:12:27;9.20;70.80
83283;DHT22;73190;50.780;5.658;2024-02-23T10:14:55;9.10;71.70
83283;DHT22;73190;50.780;5.658;2024-02-23T10:17:23;9.20;70.70
83283;DHT22;73190;50.780;5.658;2024-02-23T10:19:51;9.20;71.10
83283;DHT22;73190;50.780;5.658;2024-02-23T10:22:18;9.50;70.80
83283;DHT22;73190;50.780;5.658;2024-02-23T10:24:47;9.60;71.20
83283;DHT22;73190;50.780;5.658;2024-02-23T10:27:15;10.20;69.30
83283;DHT22;73190;50.780;5.658;2024-02-23T10:29:43;10.80;65.80
83283;DHT22;73190;50.780;5.658;2024-02-23T10:32:15;10.60;66.40
83283;DHT22;73190;50.780;5.658;2024-02-23T10:34:43;10.50;66.30
83283;DHT22;73190;50.780;5.658;2024-02-23T10:37:11;10.60;66.40
83283;DHT22;73190;50.780;5.658;2024-02-23T10:39:40;10.60;67.10
83283;DHT22;73190;50.780;5.658;2024-02-23T10:42:09;10.30;66.20
83283;DHT22;73190;50.780;5.658;2024-02-23T10:44:39;10.00;67.40
83283;DHT22;73190;50.780;5.658;2024-02-23T10:47:07;9.80;70.60
83283;DHT22;73190;50.780;5.658;2024-02-23T10:49:35;9.70;70.00
83283;DHT22;73190;50.780;5.658;2024-02-23T10:52:04;9.60;70.50
83283;DHT22;73190;50.780;5.658;2024-02-23T10:54:33;9.50;71.10
83283;DHT22;73190;50.780;5.658;2024-02-23T10:57:02;9.40;70.90
83283;DHT22;73190;50.780;5.658;2024-02-23T10:59:30;9.20;70.80
83283;DHT22;73190;50.780;5.658;2024-02-23T11:01:58;9.00;71.80
83283;DHT22;73190;50.780;5.658;2024-02-23T11:04:28;8.90;72.50
83283;DHT22;73190;50.780;5.658;2024-02-23T11:06:56;8.90;73.20
83283;DHT22;73190;50.780;5.658;2024-02-23T11:09:25;9.40;71.50
83283;DHT22;73190;50.780;5.658;2024-02-23T11:11:57;9.70;69.90
83283;DHT22;73190;50.780;5.658;2024-02-23T11:14:38;10.40;67.40
83283;DHT22;73190;50.780;5.658;2024-02-23T11:17:03;10.80;65.10
83283;DHT22;73190;50.780;5.658;2024-02-23T11:19:37;11.00;65.30
83283;DHT22;73190;50.780;5.658;2024-02-23T11:22:09;11.00;64.40
83283;DHT22;73190;50.780;5.658;2024-02-23T11:24:35;10.50;65.60
83283;DHT22;73190;50.780;5.658;2024-02-23T11:27:04;10.20;67.40
83283;DHT22;73190;50.780;5.658;2024-02-23T11:29:37;10.00;67.70
83283;DHT22;73190;50.780;5.658;2024-02-23T11:32:13;9.90;67.30
83283;DHT22;73190;50.780;5.658;2024-02-23T11:34:41;9.70;69.00
83283;DHT22;73190;50.780;5.658;2024-02-23T11:37:12;9.60;69.10
83283;DHT22;73190;50.780;5.658;2024-02-23T11:39:39;9.80;70.00
83283;DHT22;73190;50.780;5.658;2024-02-23T11:42:07;9.80;69.70
83283;DHT22;73190;50.780;5.658;2024-02-23T11:44:35;9.90;69.60
83283;DHT22;73190;50.780;5.658;2024-02-23T11:47:03;10.00;67.80
83283;DHT22;73190;50.780;5.658;2024-02-23T11:49:30;10.10;67.60
83283;DHT22;73190;50.780;5.658;2024-02-23T11:51:58;10.00;67.80
83283;DHT22;73190;50.780;5.658;2024-02-23T11:54:26;9.90;67.70
83283;DHT22;73190;50.780;5.658;2024-02-23T11:56:53;10.00;68.40
83283;DHT22;73190;50.780;5.658;2024-02-23T11:59:21;10.10;67.30
83283;DHT22;73190;50.780;5.658;2024-02-23T12:01:49;10.30;67.20
83283;DHT22;73190;50.780;5.658;2024-02-23T12:04:17;10.40;66.10
83283;DHT22;73190;50.780;5.658;2024-02-23T12:06:45;10.30;66.60
83283;DHT22;73190;50.780;5.658;2024-02-23T12:09:13;10.30;66.80
83283;DHT22;73190;50.780;5.658;2024-02-23T12:11:42;10.20;67.00
83283;DHT22;73190;50.780;5.658;2024-02-23T12:14:10;10.10;66.80
83283;DHT22;73190;50.780;5.658;2024-02-23T12:16:39;10.00;67.20
83283;DHT22;73190;50.780;5.658;2024-02-23T12:19:08;10.00;67.90
83283;DHT22;73190;50.780;5.658;2024-02-23T12:21:36;10.10;67.70
83283;DHT22;73190;50.780;5.658;2024-02-23T12:24:06;10.10;66.90
83283;DHT22;73190;50.780;5.658;2024-02-23T12:26:34;10.10;66.80
83283;DHT22;73190;50.780;5.658;2024-02-23T12:29:03;10.00;66.50
83283;DHT22;73190;50.780;5.658;2024-02-23T12:31:32;9.90;67.80
83283;DHT22;73190;50.780;5.658;2024-02-23T12:33:59;9.90;67.40
83283;DHT22;73190;50.780;5.658;2024-02-23T12:36:29;9.90;66.40
83283;DHT22;73190;50.780;5.658;2024-02-23T12:38:58;9.90;68.00
83283;DHT22;73190;50.780;5.658;2024-02-23T12:41:25;10.00;67.70
83283;DHT22;73190;50.780;5.658;2024-02-23T12:43:53;10.10;66.20
83283;DHT22;73190;50.780;5.658;2024-02-23T12:46:20;10.10;66.60
83283;DHT22;73190;50.780;5.658;2024-02-23T12:48:50;10.20;66.10
83283;DHT22;73190;50.780;5.658;2024-02-23T12:51:18;10.30;66.00
83283;DHT22;73190;50.780;5.658;2024-02-23T12:53:45;10.40;64.60
83283;DHT22;73190;50.780;5.658;2024-02-23T12:56:14;10.40;64.70
83283;DHT22;73190;50.780;5.658;2024-02-23T12:58:43;10.40;64.40
83283;DHT22;73190;50.780;5.658;2024-02-23T13:01:11;10.30;65.60
83283;DHT22;73190;50.780;5.658;2024-02-23T13:03:40;10.30;66.70
83283;DHT22;73190;50.780;5.658;2024-02-23T13:06:08;10.10;66.30
83283;DHT22;73190;50.780;5.658;2024-02-23T13:08:35;10.00;67.50
83283;DHT22;73190;50.780;5.658;2024-02-23T13:11:05;10.00;68.60
83283;DHT22;73190;50.780;5.658;2024-02-23T13:13:32;10.20;66.80
83283;DHT22;73190;50.780;5.658;2024-02-23T13:16:00;10.60;65.50
83283;DHT22;73190;50.780;5.658;2024-02-23T13:18:27;10.60;65.70
83283;DHT22;73190;50.780;5.658;2024-02-23T13:20:55;10.90;66.90
83283;DHT22;73190;50.780;5.658;2024-02-23T13:23:22;11.40;65.60
83283;DHT22;73190;50.780;5.658;2024-02-23T13:25:51;11.60;62.30
83283;DHT22;73190;50.780;5.658;2024-02-23T13:28:18;11.90;63.20
83283;DHT22;73190;50.780;5.658;2024-02-23T13:30:46;12.30;62.30
83283;DHT22;73190;50.780;5.658;2024-02-23T13:33:14;12.70;60.00
83283;DHT22;73190;50.780;5.658;2024-02-23T13:35:43;13.20;58.70
83283;DHT22;73190;50.780;5.658;2024-02-23T13:38:11;13.80;56.80
83283;DHT22;73190;50.780;5.658;2024-02-23T13:40:38;13.70;57.50
83283;DHT22;73190;50.780;5.658;2024-02-23T13:43:06;13.30;57.00
83283;DHT22;73190;50.780;5.658;2024-02-23T13:45:47;12.70;57.90
83283;DHT22;73190;50.780;5.658;2024-02-23T13:48:06;12.00;60.90
83283;DHT22;73190;50.780;5.658;2024-02-23T13:50:33;11.30;64.00
83283;DHT22;73190;50.780;5.658;2024-02-23T13:53:02;10.80;68.50
83283;DHT22;73190;50.780;5.658;2024-02-23T13:55:29;10.70;69.70
83283;DHT22;73190;50.780;5.658;2024-02-23T13:57:57;10.70;70.10
83283;DHT22;73190;50.780;5.658;2024-02-23T14:00:24;10.90;70.40
83283;DHT22;73190;50.780;5.658;2024-02-23T14:02:52;10.90;67.50
83283;DHT22;73190;50.780;5.658;2024-02-23T14:05:20;10.90;67.30
83283;DHT22;73190;50.780;5.658;2024-02-23T14:07:48;11.10;67.30
83283;DHT22;73190;50.780;5.658;2024-02-23T14:10:16;11.20;65.60
83283;DHT22;73190;50.780;5.658;2024-02-23T14:12:43;11.00;67.20
83283;DHT22;73190;50.780;5.658;2024-02-23T14:15:11;10.60;67.30
83283;DHT22;73190;50.780;5.658;2024-02-23T14:17:39;10.50;67.40
83283;DHT22;73190;50.780;5.658;2024-02-23T14:20:07;10.10;68.90
83283;DHT22;73190;50.780;5.658;2024-02-23T14:22:35;10.00;69.40
83283;DHT22;73190;50.780;5.658;2024-02-23T14:25:03;10.00;70.50
83283;DHT22;73190;50.780;5.658;2024-02-23T14:27:30;10.20;70.00
83283;DHT22;73190;50.780;5.658;2024-02-23T14:29:58;10.40;69.30
83283;DHT22;73190;50.780;5.658;2024-02-23T14:32:26;10.30;69.00
83283;DHT22;73190;50.780;5.658;2024-02-23T14:34:53;10.20;68.00
83283;DHT22;73190;50.780;5.658;2024-02-23T14:37:21;10.20;68.40
83283;DHT22;73190;50.780;5.658;2024-02-23T14:39:49;10.40;67.90
83283;DHT22;73190;50.780;5.658;2024-02-23T14:42:16;10.70;66.70
83283;DHT22;73190;50.780;5.658;2024-02-23T14:44:44;10.90;67.00
83283;DHT22;73190;50.780;5.658;2024-02-23T14:47:12;11.10;65.70
83283;DHT22;73190;50.780;5.658;2024-02-23T14:49:40;11.80;64.80
83283;DHT22;73190;50.780;5.658;2024-02-23T14:52:07;12.80;60.70
83283;DHT22;73190;50.780;5.658;2024-02-23T14:54:35;13.30;60.00
83283;DHT22;73190;50.780;5.658;2024-02-23T14:57:03;14.00;57.70
83283;DHT22;73190;50.780;5.658;2024-02-23T14:59:31;14.50;54.90
83283;DHT22;73190;50.780;5.658;2024-02-23T15:02:00;14.80;53.70
83283;DHT22;73190;50.780;5.658;2024-02-23T15:04:27;15.30;52.30
83283;DHT22;73190;50.780;5.658;2024-02-23T15:06:55;15.50;51.60
83283;DHT22;73190;50.780;5.658;2024-02-23T15:09:23;15.50;51.20
83283;DHT22;73190;50.780;5.658;2024-02-23T15:11:51;15.10;51.30
83283;DHT22;73190;50.780;5.658;2024-02-23T15:14:19;14.50;51.10
83283;DHT22;73190;50.780;5.658;2024-02-23T15:16:46;13.60;53.90
83283;DHT22;73190;50.780;5.658;2024-02-23T15:19:14;13.00;55.30
83283;DHT22;73190;50.780;5.658;2024-02-23T15:21:41;12.70;56.40
83283;DHT22;73190;50.780;5.658;2024-02-23T15:24:09;12.30;58.30
83283;DHT22;73190;50.780;5.658;2024-02-23T15:26:36;11.90;60.00
83283;DHT22;73190;50.780;5.658;2024-02-23T15:29:04;12.00;60.20
83283;DHT22;73190;50.780;5.658;2024-02-23T15:31:31;11.80;60.10
83283;DHT22;73190;50.780;5.658;2024-02-23T15:33:59;11.60;60.80
83283;DHT22;73190;50.780;5.658;2024-02-23T15:36:28;11.40;62.00
83283;DHT22;73190;50.780;5.658;2024-02-23T15:38:56;11.10;60.10
83283;DHT22;73190;50.780;5.658;2024-02-23T15:41:27;10.90;61.80
83283;DHT22;73190;50.780;5.658;2024-02-23T15:43:54;10.80;61.30
83283;DHT22;73190;50.780;5.658;2024-02-23T15:46:22;10.70;62.60
83283;DHT22;73190;50.780;5.658;2024-02-23T15:48:49;10.70;62.60